Clawson, Michigan
Current Conditions -  °F | °C
As of 12:55 PM on Friday 24 Oct 2014 (Local Time) from KVLL Reporting Station
Overcast Overcast  
Wind Chill: 58°   Ceiling: 6000
Heat Index: 58°   Visibility: 10mi
Dew Point: 42°   Wind: 3mph
Humidity: 55%   Direction: 210°SSW
Pressure: 30.07"   Gusts: NA
Location:  42.54°N, 83.15°W
Report Text: KVLL 241655Z AUTO 21003KT 10SM OVC060 15/06 A3007 RMK AO2 T01460057
Loading
Personal Weather Stations






























Interactive Weather Map
Tropical Storm Tracking
New forecast layout! Learn more

10-Day Weather Forecast

Advertisements
Track Severe Weather on mobile